Progranichnyj, Russia
Current Conditions -  °F | °C
As of 6:30 PM on Thursday 23 Oct 2014 (Local Time) from UHWW Reporting Station
Overcast Overcast  
Wind Chill: 55°   Ceiling: 3000
Heat Index: 55°   Visibility: 6mi
Dew Point: 46°   Wind: 16mph
Humidity: 72%   Direction: 170°S
Pressure: 30"   Gusts: NA
Location:  44.4°N, 131.38°E
Report Text: UHWW 230830Z 17007MPS 9999 OVC030 13/08 Q1016 NOSIG RMKQFE760/1014 25CLRD70
Loading
Personal Weather Stations






























Interactive Weather Map
Tropical Storm Tracking
New forecast layout! Learn more

10-Day Weather Forecast

Advertisements
Track Severe Weather on mobile